sensor_id;sensor_type;location;lat;lon;timestamp;pressure;altitude;pressure_sealevel;temperature;humidity
78800;BME280;68148;55.328;86.106;2024-03-29T00:00:07;98657.25;;;3.32;100.00
78800;BME280;68148;55.328;86.106;2024-03-29T00:02:33;98670.59;;;3.29;100.00
78800;BME280;68148;55.328;86.106;2024-03-29T00:04:59;98667.19;;;3.29;100.00
78800;BME280;68148;55.328;86.106;2024-03-29T00:07:25;98677.59;;;3.29;100.00
78800;BME280;68148;55.328;86.106;2024-03-29T00:09:55;98677.78;;;3.35;100.00
78800;BME280;68148;55.328;86.106;2024-03-29T00:12:21;98689.34;;;3.33;100.00
78800;BME280;68148;55.328;86.106;2024-03-29T00:14:47;98683.81;;;3.28;100.00
78800;BME280;68148;55.328;86.106;2024-03-29T00:17:16;98704.50;;;3.29;100.00
78800;BME280;68148;55.328;86.106;2024-03-29T00:19:50;98701.56;;;3.24;100.00
78800;BME280;68148;55.328;86.106;2024-03-29T00:22:16;98691.16;;;3.24;100.00
78800;BME280;68148;55.328;86.106;2024-03-29T00:24:42;98680.09;;;3.22;100.00
78800;BME280;68148;55.328;86.106;2024-03-29T00:27:08;98686.44;;;3.19;100.00
78800;BME280;68148;55.328;86.106;2024-03-29T00:29:34;98688.72;;;3.22;100.00
78800;BME280;68148;55.328;86.106;2024-03-29T00:32:01;98676.97;;;3.26;100.00
78800;BME280;68148;55.328;86.106;2024-03-29T00:34:27;98674.03;;;3.30;100.00
78800;BME280;68148;55.328;86.106;2024-03-29T00:36:59;98674.81;;;3.38;100.00
78800;BME280;68148;55.328;86.106;2024-03-29T00:39:31;98661.63;;;3.40;100.00
78800;BME280;68148;55.328;86.106;2024-03-29T00:41:57;98667.84;;;3.39;100.00
78800;BME280;68148;55.328;86.106;2024-03-29T00:44:25;98663.56;;;3.38;100.00
78800;BME280;68148;55.328;86.106;2024-03-29T00:46:50;98672.53;;;3.43;100.00
78800;BME280;68148;55.328;86.106;2024-03-29T00:49:16;98665.84;;;3.41;100.00
78800;BME280;68148;55.328;86.106;2024-03-29T00:51:42;98661.13;;;3.44;100.00
78800;BME280;68148;55.328;86.106;2024-03-29T00:54:08;98648.22;;;3.51;100.00
78800;BME280;68148;55.328;86.106;2024-03-29T00:56:33;98639.28;;;3.45;100.00
78800;BME280;68148;55.328;86.106;2024-03-29T00:59:01;98629.31;;;3.49;100.00
78800;BME280;68148;55.328;86.106;2024-03-29T01:01:27;98627.22;;;3.44;100.00
78800;BME280;68148;55.328;86.106;2024-03-29T01:03:53;98632.25;;;3.46;100.00
78800;BME280;68148;55.328;86.106;2024-03-29T01:06:19;98627.19;;;3.53;100.00
78800;BME280;68148;55.328;86.106;2024-03-29T01:08:45;98619.00;;;3.64;100.00
78800;BME280;68148;55.328;86.106;2024-03-29T01:11:11;98615.56;;;3.63;100.00
78800;BME280;68148;55.328;86.106;2024-03-29T01:13:39;98627.47;;;3.66;100.00
78800;BME280;68148;55.328;86.106;2024-03-29T01:16:15;98610.50;;;3.70;100.00
78800;BME280;68148;55.328;86.106;2024-03-29T01:18:41;98608.91;;;3.61;100.00
78800;BME280;68148;55.328;86.106;2024-03-29T01:21:07;98595.03;;;3.68;100.00
78800;BME280;68148;55.328;86.106;2024-03-29T01:23:33;98598.44;;;3.69;100.00
78800;BME280;68148;55.328;86.106;2024-03-29T01:25:59;98598.44;;;3.69;100.00
78800;BME280;68148;55.328;86.106;2024-03-29T01:28:26;98586.25;;;3.61;100.00
78800;BME280;68148;55.328;86.106;2024-03-29T01:30:53;98583.31;;;3.64;100.00
78800;BME280;68148;55.328;86.106;2024-03-29T01:33:21;98577.09;;;3.65;100.00
78800;BME280;68148;55.328;86.106;2024-03-29T01:35:47;98580.50;;;3.66;100.00
78800;BME280;68148;55.328;86.106;2024-03-29T01:38:39;98563.19;;;3.73;100.00
78800;BME280;68148;55.328;86.106;2024-03-29T01:41:05;98559.38;;;3.84;100.00
78800;BME280;68148;55.328;86.106;2024-03-29T01:43:31;98556.25;;;3.88;100.00
78800;BME280;68148;55.328;86.106;2024-03-29T01:45:57;98561.25;;;3.98;100.00
78800;BME280;68148;55.328;86.106;2024-03-29T01:48:23;98549.59;;;3.86;100.00
78800;BME280;68148;55.328;86.106;2024-03-29T01:50:56;98554.16;;;4.07;100.00
78800;BME280;68148;55.328;86.106;2024-03-29T01:53:23;98557.91;;;4.12;100.00
78800;BME280;68148;55.328;86.106;2024-03-29T01:55:50;98544.66;;;4.14;99.97
78800;BME280;68148;55.328;86.106;2024-03-29T01:58:17;98541.59;;;4.10;100.00
78800;BME280;68148;55.328;86.106;2024-03-29T02:00:58;98543.84;;;4.13;100.00
78800;BME280;68148;55.328;86.106;2024-03-29T02:03:25;98537.81;;;4.13;100.00
78800;BME280;68148;55.328;86.106;2024-03-29T02:05:51;98540.25;;;4.14;99.46
78800;BME280;68148;55.328;86.106;2024-03-29T02:08:18;98522.16;;;4.13;99.56
78800;BME280;68148;55.328;86.106;2024-03-29T02:10:46;98529.28;;;4.19;98.91
78800;BME280;68148;55.328;86.106;2024-03-29T02:13:12;98526.56;;;4.12;99.91
78800;BME280;68148;55.328;86.106;2024-03-29T02:15:39;98525.56;;;4.13;99.58
78800;BME280;68148;55.328;86.106;2024-03-29T02:18:09;98520.53;;;4.12;99.74
78800;BME280;68148;55.328;86.106;2024-03-29T02:20:35;98519.03;;;4.17;99.42
78800;BME280;68148;55.328;86.106;2024-03-29T02:23:14;98514.13;;;4.14;99.90
78800;BME280;68148;55.328;86.106;2024-03-29T02:25:41;98512.19;;;4.16;99.72
78800;BME280;68148;55.328;86.106;2024-03-29T02:28:07;98519.50;;;4.21;99.63
78800;BME280;68148;55.328;86.106;2024-03-29T02:30:33;98518.69;;;4.20;99.69
78800;BME280;68148;55.328;86.106;2024-03-29T02:33:01;98509.84;;;4.21;99.59
78800;BME280;68148;55.328;86.106;2024-03-29T02:35:28;98514.59;;;4.18;99.91
78800;BME280;68148;55.328;86.106;2024-03-29T02:37:55;98529.53;;;4.09;100.00
78800;BME280;68148;55.328;86.106;2024-03-29T02:40:21;98541.94;;;4.07;100.00
78800;BME280;68148;55.328;86.106;2024-03-29T02:42:50;98563.34;;;4.03;100.00
78800;BME280;68148;55.328;86.106;2024-03-29T02:45:16;98567.91;;;4.00;100.00
78800;BME280;68148;55.328;86.106;2024-03-29T02:47:43;98576.91;;;3.98;100.00
78800;BME280;68148;55.328;86.106;2024-03-29T02:50:13;98582.63;;;3.93;100.00
78800;BME280;68148;55.328;86.106;2024-03-29T02:52:47;98582.59;;;4.01;100.00
78800;BME280;68148;55.328;86.106;2024-03-29T02:55:13;98574.28;;;3.98;100.00
78800;BME280;68148;55.328;86.106;2024-03-29T02:57:38;98579.34;;;3.99;100.00
78800;BME280;68148;55.328;86.106;2024-03-29T03:00:06;98560.91;;;4.01;100.00
78800;BME280;68148;55.328;86.106;2024-03-29T03:02:37;98581.13;;;4.07;100.00
78800;BME280;68148;55.328;86.106;2024-03-29T03:05:03;98583.34;;;4.10;100.00
78800;BME280;68148;55.328;86.106;2024-03-29T03:07:29;98577.31;;;4.10;100.00
78800;BME280;68148;55.328;86.106;2024-03-29T03:09:55;98576.50;;;4.09;100.00
78800;BME280;68148;55.328;86.106;2024-03-29T03:12:20;98571.28;;;4.09;100.00
78800;BME280;68148;55.328;86.106;2024-03-29T03:14:46;98584.00;;;4.12;100.00
78800;BME280;68148;55.328;86.106;2024-03-29T03:17:12;98570.81;;;4.06;100.00
78800;BME280;68148;55.328;86.106;2024-03-29T03:19:51;98567.59;;;4.04;100.00
78800;BME280;68148;55.328;86.106;2024-03-29T03:22:17;98581.25;;;4.06;100.00
78800;BME280;68148;55.328;86.106;2024-03-29T03:24:58;98584.47;;;4.16;100.00
78800;BME280;68148;55.328;86.106;2024-03-29T03:27:24;98591.38;;;4.09;100.00
78800;BME280;68148;55.328;86.106;2024-03-29T03:29:50;98589.56;;;4.09;100.00
78800;BME280;68148;55.328;86.106;2024-03-29T03:32:17;98587.94;;;4.08;100.00
78800;BME280;68148;55.328;86.106;2024-03-29T03:34:43;98584.47;;;4.16;100.00
78800;BME280;68148;55.328;86.106;2024-03-29T03:37:09;98581.69;;;4.17;100.00
78800;BME280;68148;55.328;86.106;2024-03-29T03:39:37;98586.84;;;4.25;100.00
78800;BME280;68148;55.328;86.106;2024-03-29T03:42:03;98586.44;;;4.37;100.00
78800;BME280;68148;55.328;86.106;2024-03-29T03:44:29;98601.88;;;4.46;100.00
78800;BME280;68148;55.328;86.106;2024-03-29T03:46:55;98599.75;;;4.50;100.00
78800;BME280;68148;55.328;86.106;2024-03-29T03:49:28;98609.47;;;4.56;100.00
78800;BME280;68148;55.328;86.106;2024-03-29T03:51:55;98606.00;;;4.64;100.00
78800;BME280;68148;55.328;86.106;2024-03-29T03:54:21;98615.28;;;4.66;100.00
78800;BME280;68148;55.328;86.106;2024-03-29T03:56:47;98616.09;;;4.67;100.00
78800;BME280;68148;55.328;86.106;2024-03-29T03:59:14;98629.06;;;4.75;100.00
78800;BME280;68148;55.328;86.106;2024-03-29T04:01:40;98637.38;;;4.78;100.00
78800;BME280;68148;55.328;86.106;2024-03-29T04:04:06;98640.66;;;4.81;100.00
78800;BME280;68148;55.328;86.106;2024-03-29T04:06:32;98637.97;;;4.89;100.00
78800;BME280;68148;55.328;86.106;2024-03-29T04:08:58;98638.72;;;4.97;100.00
78800;BME280;68148;55.328;86.106;2024-03-29T04:11:25;98645.56;;;5.13;100.00
78800;BME280;68148;55.328;86.106;2024-03-29T04:13:50;98647.94;;;5.38;100.00
78800;BME280;68148;55.328;86.106;2024-03-29T04:16:18;98644.91;;;5.49;100.00
78800;BME280;68148;55.328;86.106;2024-03-29T04:18:44;98643.63;;;5.74;100.00
78800;BME280;68148;55.328;86.106;2024-03-29T04:21:10;98653.66;;;6.00;100.00
78800;BME280;68148;55.328;86.106;2024-03-29T04:23:36;98654.81;;;6.13;100.00
78800;BME280;68148;55.328;86.106;2024-03-29T04:26:03;98651.88;;;6.22;100.00
78800;BME280;68148;55.328;86.106;2024-03-29T04:28:29;98656.09;;;6.38;100.00
78800;BME280;68148;55.328;86.106;2024-03-29T04:30:58;98659.81;;;6.50;100.00
78800;BME280;68148;55.328;86.106;2024-03-29T04:33:25;98665.44;;;6.47;100.00
78800;BME280;68148;55.328;86.106;2024-03-29T04:35:55;98664.50;;;6.76;100.00
78800;BME280;68148;55.328;86.106;2024-03-29T04:38:23;98670.28;;;6.93;100.00
78800;BME280;68148;55.328;86.106;2024-03-29T04:40:51;98677.59;;;6.98;100.00
78800;BME280;68148;55.328;86.106;2024-03-29T04:43:17;98676.06;;;7.03;100.00
78800;BME280;68148;55.328;86.106;2024-03-29T04:45:44;98692.28;;;6.92;100.00
78800;BME280;68148;55.328;86.106;2024-03-29T04:48:11;98684.97;;;6.88;100.00
78800;BME280;68148;55.328;86.106;2024-03-29T04:50:37;98682.50;;;6.80;100.00
78800;BME280;68148;55.328;86.106;2024-03-29T04:53:04;98689.50;;;6.72;100.00
78800;BME280;68148;55.328;86.106;2024-03-29T04:55:30;98684.66;;;6.76;99.94
78800;BME280;68148;55.328;86.106;2024-03-29T04:57:56;98691.84;;;6.89;99.45
78800;BME280;68148;55.328;86.106;2024-03-29T05:00:22;98691.03;;;7.10;99.43
78800;BME280;68148;55.328;86.106;2024-03-29T05:02:48;98696.94;;;7.18;99.43
78800;BME280;68148;55.328;86.106;2024-03-29T05:05:14;98695.78;;;7.27;98.65
78800;BME280;68148;55.328;86.106;2024-03-29T05:07:40;98694.38;;;7.25;97.71
78800;BME280;68148;55.328;86.106;2024-03-29T05:10:06;98701.56;;;7.44;97.74
78800;BME280;68148;55.328;86.106;2024-03-29T05:12:32;98706.00;;;7.44;96.54
78800;BME280;68148;55.328;86.106;2024-03-29T05:14:58;98707.03;;;7.43;94.60
78800;BME280;68148;55.328;86.106;2024-03-29T05:17:24;98709.94;;;7.55;94.60
78800;BME280;68148;55.328;86.106;2024-03-29T05:19:50;98718.00;;;7.53;95.68
78800;BME280;68148;55.328;86.106;2024-03-29T05:22:16;98716.94;;;7.47;92.14
78800;BME280;68148;55.328;86.106;2024-03-29T05:24:42;98727.25;;;7.49;92.21
78800;BME280;68148;55.328;86.106;2024-03-29T05:27:08;98725.13;;;7.59;92.17
78800;BME280;68148;55.328;86.106;2024-03-29T05:29:34;98721.13;;;7.70;91.07
78800;BME280;68148;55.328;86.106;2024-03-29T05:32:00;98733.09;;;7.79;93.22
78800;BME280;68148;55.328;86.106;2024-03-29T05:34:26;98730.75;;;7.56;91.41
78800;BME280;68148;55.328;86.106;2024-03-29T05:36:52;98737.88;;;7.41;90.90
78800;BME280;68148;55.328;86.106;2024-03-29T05:39:18;98742.47;;;7.32;92.58
78800;BME280;68148;55.328;86.106;2024-03-29T05:41:47;98741.53;;;7.18;92.34
78800;BME280;68148;55.328;86.106;2024-03-29T05:44:13;98734.13;;;7.00;91.00
78800;BME280;68148;55.328;86.106;2024-03-29T05:46:39;98742.38;;;6.97;91.43
78800;BME280;68148;55.328;86.106;2024-03-29T05:49:05;98743.44;;;7.03;94.46
78800;BME280;68148;55.328;86.106;2024-03-29T05:51:31;98741.78;;;7.02;92.90
78800;BME280;68148;55.328;86.106;2024-03-29T05:54:00;98752.03;;;6.97;92.18
78800;BME280;68148;55.328;86.106;2024-03-29T05:56:26;98743.56;;;6.73;91.94
78800;BME280;68148;55.328;86.106;2024-03-29T05:58:52;98752.53;;;6.64;92.67
78800;BME280;68148;55.328;86.106;2024-03-29T06:01:18;98753.34;;;6.65;93.70
78800;BME280;68148;55.328;86.106;2024-03-29T06:03:59;98757.00;;;6.49;93.21
78800;BME280;68148;55.328;86.106;2024-03-29T06:06:27;98758.50;;;6.58;93.67
78800;BME280;68148;55.328;86.106;2024-03-29T06:08:57;98763.75;;;6.58;94.29
78800;BME280;68148;55.328;86.106;2024-03-29T06:11:23;98755.88;;;6.58;93.97
78800;BME280;68148;55.328;86.106;2024-03-29T06:13:49;98760.41;;;6.49;93.73
78800;BME280;68148;55.328;86.106;2024-03-29T06:16:16;98771.09;;;6.48;94.85
78800;BME280;68148;55.328;86.106;2024-03-29T06:18:42;98770.56;;;6.38;94.22
78800;BME280;68148;55.328;86.106;2024-03-29T06:21:07;98771.59;;;6.22;92.72
78800;BME280;68148;55.328;86.106;2024-03-29T06:23:33;98777.28;;;6.25;94.80
78800;BME280;68148;55.328;86.106;2024-03-29T06:25:59;98776.81;;;6.22;94.66
78800;BME280;68148;55.328;86.106;2024-03-29T06:28:25;98770.66;;;6.15;93.03
78800;BME280;68148;55.328;86.106;2024-03-29T06:30:51;98773.09;;;6.16;93.65
78800;BME280;68148;55.328;86.106;2024-03-29T06:33:17;98777.38;;;6.17;92.91
78800;BME280;68148;55.328;86.106;2024-03-29T06:35:42;98775.09;;;6.14;92.48
78800;BME280;68148;55.328;86.106;2024-03-29T06:38:08;98769.41;;;6.11;93.31
78800;BME280;68148;55.328;86.106;2024-03-29T06:40:34;98776.72;;;6.15;92.41
78800;BME280;68148;55.328;86.106;2024-03-29T06:43:00;98771.13;;;6.18;91.65
78800;BME280;68148;55.328;86.106;2024-03-29T06:45:26;98761.25;;;6.20;92.79
78800;BME280;68148;55.328;86.106;2024-03-29T06:47:52;98755.88;;;6.22;91.54
78800;BME280;68148;55.328;86.106;2024-03-29T06:50:18;98746.53;;;6.34;92.94
78800;BME280;68148;55.328;86.106;2024-03-29T06:52:43;98748.53;;;6.32;89.95
78800;BME280;68148;55.328;86.106;2024-03-29T06:55:09;98743.63;;;6.29;92.01
78800;BME280;68148;55.328;86.106;2024-03-29T06:57:35;98741.41;;;6.26;89.89
78800;BME280;68148;55.328;86.106;2024-03-29T07:00:01;98744.91;;;6.33;90.31
78800;BME280;68148;55.328;86.106;2024-03-29T07:02:27;98739.34;;;6.21;89.37
78800;BME280;68148;55.328;86.106;2024-03-29T07:04:53;98741.75;;;6.23;89.29
78800;BME280;68148;55.328;86.106;2024-03-29T07:07:19;98746.91;;;6.16;89.45
78800;BME280;68148;55.328;86.106;2024-03-29T07:09:44;98741.25;;;6.13;88.92
78800;BME280;68148;55.328;86.106;2024-03-29T07:12:10;98733.00;;;6.16;91.20
78800;BME280;68148;55.328;86.106;2024-03-29T07:14:36;98742.94;;;6.06;88.90
78800;BME280;68148;55.328;86.106;2024-03-29T07:17:02;98740.78;;;6.09;90.75
78800;BME280;68148;55.328;86.106;2024-03-29T07:19:29;98727.94;;;6.14;90.19
78800;BME280;68148;55.328;86.106;2024-03-29T07:21:54;98727.16;;;6.14;88.77
78800;BME280;68148;55.328;86.106;2024-03-29T07:24:20;98728.84;;;6.07;89.17
78800;BME280;68148;55.328;86.106;2024-03-29T07:26:46;98731.81;;;6.03;89.42
78800;BME280;68148;55.328;86.106;2024-03-29T07:29:12;98731.03;;;6.03;89.46
78800;BME280;68148;55.328;86.106;2024-03-29T07:31:38;98728.59;;;6.01;90.42
78800;BME280;68148;55.328;86.106;2024-03-29T07:34:04;98734.19;;;5.98;91.65
78800;BME280;68148;55.328;86.106;2024-03-29T07:36:29;98727.53;;;5.96;91.21
78800;BME280;68148;55.328;86.106;2024-03-29T07:38:55;98730.41;;;6.01;91.23
78800;BME280;68148;55.328;86.106;2024-03-29T07:41:21;98720.66;;;6.10;91.39
78800;BME280;68148;55.328;86.106;2024-03-29T07:43:55;98719.84;;;6.09;91.87
78800;BME280;68148;55.328;86.106;2024-03-29T07:46:20;98729.56;;;6.15;90.90
78800;BME280;68148;55.328;86.106;2024-03-29T07:48:46;98718.72;;;6.18;89.97
78800;BME280;68148;55.328;86.106;2024-03-29T07:51:12;98725.94;;;6.16;89.05
78800;BME280;68148;55.328;86.106;2024-03-29T07:53:38;98717.00;;;6.25;89.11
78800;BME280;68148;55.328;86.106;2024-03-29T07:56:04;98715.25;;;6.33;87.88
78800;BME280;68148;55.328;86.106;2024-03-29T07:58:30;98713.75;;;6.38;88.11
78800;BME280;68148;55.328;86.106;2024-03-29T08:00:56;98712.63;;;6.47;89.62
78800;BME280;68148;55.328;86.106;2024-03-29T08:03:22;98711.81;;;6.47;87.54
78800;BME280;68148;55.328;86.106;2024-03-29T08:05:58;98701.34;;;6.47;86.83
78800;BME280;68148;55.328;86.106;2024-03-29T08:08:24;98706.38;;;6.48;89.17
78800;BME280;68148;55.328;86.106;2024-03-29T08:10:50;98709.44;;;6.52;87.60
78800;BME280;68148;55.328;86.106;2024-03-29T08:13:23;98707.56;;;6.67;87.06
78800;BME280;68148;55.328;86.106;2024-03-29T08:15:49;98702.34;;;6.67;85.84
78800;BME280;68148;55.328;86.106;2024-03-29T08:18:15;98712.34;;;6.78;85.36
78800;BME280;68148;55.328;86.106;2024-03-29T08:20:41;98708.72;;;6.80;85.74
78800;BME280;68148;55.328;86.106;2024-03-29T08:23:07;98712.91;;;6.95;85.19
78800;BME280;68148;55.328;86.106;2024-03-29T08:25:33;98719.41;;;6.99;84.70
78800;BME280;68148;55.328;86.106;2024-03-29T08:27:59;98719.72;;;6.90;84.63
78800;BME280;68148;55.328;86.106;2024-03-29T08:30:25;98723.97;;;6.91;86.29
78800;BME280;68148;55.328;86.106;2024-03-29T08:32:51;98732.94;;;6.82;85.64
78800;BME280;68148;55.328;86.106;2024-03-29T08:35:17;98729.31;;;6.83;86.90
78800;BME280;68148;55.328;86.106;2024-03-29T08:37:44;98733.03;;;6.52;87.08
78800;BME280;68148;55.328;86.106;2024-03-29T08:40:10;98749.22;;;6.56;88.78
78800;BME280;68148;55.328;86.106;2024-03-29T08:42:36;98749.59;;;6.38;89.84
78800;BME280;68148;55.328;86.106;2024-03-29T08:45:02;98746.09;;;6.31;91.31
78800;BME280;68148;55.328;86.106;2024-03-29T08:47:30;98752.44;;;5.92;91.82
78800;BME280;68148;55.328;86.106;2024-03-29T08:49:55;98748.34;;;5.89;93.13
78800;BME280;68148;55.328;86.106;2024-03-29T08:52:22;98744.72;;;5.75;93.23
78800;BME280;68148;55.328;86.106;2024-03-29T08:54:49;98750.13;;;5.59;94.05
78800;BME280;68148;55.328;86.106;2024-03-29T08:57:15;98750.84;;;5.53;95.08
78800;BME280;68148;55.328;86.106;2024-03-29T08:59:40;98751.91;;;5.44;95.07
78800;BME280;68148;55.328;86.106;2024-03-29T09:02:06;98747.50;;;5.44;95.61
78800;BME280;68148;55.328;86.106;2024-03-29T09:04:32;98761.59;;;5.35;95.83
78800;BME280;68148;55.328;86.106;2024-03-29T09:07:00;98758.19;;;5.35;94.87
78800;BME280;68148;55.328;86.106;2024-03-29T09:09:45;98756.22;;;5.37;95.13
78800;BME280;68148;55.328;86.106;2024-03-29T09:12:11;98757.22;;;5.36;95.37
78800;BME280;68148;55.328;86.106;2024-03-29T09:14:37;98758.84;;;5.37;95.85
78800;BME280;68148;55.328;86.106;2024-03-29T09:17:03;98758.03;;;5.36;94.69
78800;BME280;68148;55.328;86.106;2024-03-29T09:19:29;98769.19;;;5.30;93.79
78800;BME280;68148;55.328;86.106;2024-03-29T09:21:55;98771.78;;;5.30;93.15
78800;BME280;68148;55.328;86.106;2024-03-29T09:24:20;98777.22;;;5.28;92.27
78800;BME280;68148;55.328;86.106;2024-03-29T09:26:48;98783.53;;;5.34;95.04
78800;BME280;68148;55.328;86.106;2024-03-29T09:29:14;98782.53;;;5.35;95.14
78800;BME280;68148;55.328;86.106;2024-03-29T09:31:40;98787.94;;;5.34;94.13
78800;BME280;68148;55.328;86.106;2024-03-29T09:34:06;98797.31;;;5.28;92.83
78800;BME280;68148;55.328;86.106;2024-03-29T09:36:32;98781.44;;;5.30;93.87
78800;BME280;68148;55.328;86.106;2024-03-29T09:38:57;98804.19;;;5.29;94.61
78800;BME280;68148;55.328;86.106;2024-03-29T09:41:25;98794.25;;;5.24;93.78
78800;BME280;68148;55.328;86.106;2024-03-29T09:43:53;98802.91;;;5.25;94.73
78800;BME280;68148;55.328;86.106;2024-03-29T09:46:19;98794.13;;;5.18;95.57
78800;BME280;68148;55.328;86.106;2024-03-29T09:48:45;98807.13;;;5.26;94.77
78800;BME280;68148;55.328;86.106;2024-03-29T09:51:12;98810.34;;;5.13;95.43
78800;BME280;68148;55.328;86.106;2024-03-29T09:53:41;98818.22;;;5.05;95.80
78800;BME280;68148;55.328;86.106;2024-03-29T09:56:08;98820.50;;;5.08;97.03
78800;BME280;68148;55.328;86.106;2024-03-29T09:58:35;98821.22;;;5.02;97.45
78800;BME280;68148;55.328;86.106;2024-03-29T10:01:02;98818.63;;;4.94;98.02
78800;BME280;68148;55.328;86.106;2024-03-29T10:03:29;98825.03;;;4.91;98.72
78800;BME280;68148;55.328;86.106;2024-03-29T10:06:10;98816.06;;;4.86;98.79
78800;BME280;68148;55.328;86.106;2024-03-29T10:08:35;98826.56;;;4.77;99.41
78800;BME280;68148;55.328;86.106;2024-03-29T10:11:01;98821.97;;;4.80;100.00
78800;BME280;68148;55.328;86.106;2024-03-29T10:13:27;98823.81;;;4.71;100.00
78800;BME280;68148;55.328;86.106;2024-03-29T10:15:53;98825.66;;;4.62;100.00
78800;BME280;68148;55.328;86.106;2024-03-29T10:18:27;98834.00;;;4.58;100.00
78800;BME280;68148;55.328;86.106;2024-03-29T10:21:04;98834.19;;;4.56;100.00
78800;BME280;68148;55.328;86.106;2024-03-29T10:23:31;98836.16;;;4.54;100.00
78800;BME280;68148;55.328;86.106;2024-03-29T10:25:57;98836.00;;;4.47;100.00
78800;BME280;68148;55.328;86.106;2024-03-29T10:28:23;98840.75;;;4.44;100.00
78800;BME280;68148;55.328;86.106;2024-03-29T10:30:50;98841.25;;;4.39;100.00
78800;BME280;68148;55.328;86.106;2024-03-29T10:33:16;98844.53;;;4.41;100.00
78800;BME280;68148;55.328;86.106;2024-03-29T10:35:43;98843.25;;;4.37;100.00
78800;BME280;68148;55.328;86.106;2024-03-29T10:38:12;98855.13;;;4.40;100.00
78800;BME280;68148;55.328;86.106;2024-03-29T10:40:39;98840.13;;;4.42;100.00
78800;BME280;68148;55.328;86.106;2024-03-29T10:43:05;98856.09;;;4.47;100.00
78800;BME280;68148;55.328;86.106;2024-03-29T10:45:31;98849.75;;;4.41;100.00
78800;BME280;68148;55.328;86.106;2024-03-29T10:47:58;98852.53;;;4.32;100.00
78800;BME280;68148;55.328;86.106;2024-03-29T10:50:25;98868.06;;;4.33;100.00
78800;BME280;68148;55.328;86.106;2024-03-29T10:52:53;98867.91;;;4.26;100.00
78800;BME280;68148;55.328;86.106;2024-03-29T10:55:20;98877.44;;;4.11;100.00
78800;BME280;68148;55.328;86.106;2024-03-29T10:57:48;98877.56;;;4.10;100.00
78800;BME280;68148;55.328;86.106;2024-03-29T11:00:18;98883.63;;;4.02;100.00
78800;BME280;68148;55.328;86.106;2024-03-29T11:03:13;98884.91;;;4.06;100.00
78800;BME280;68148;55.328;86.106;2024-03-29T11:05:44;98879.25;;;3.86;100.00
78800;BME280;68148;55.328;86.106;2024-03-29T11:08:16;98879.56;;;3.91;100.00
78800;BME280;68148;55.328;86.106;2024-03-29T11:10:47;98882.00;;;3.93;100.00
78800;BME280;68148;55.328;86.106;2024-03-29T11:15:52;98888.69;;;3.79;100.00
78800;BME280;68148;55.328;86.106;2024-03-29T11:18:19;98896.53;;;3.79;100.00
78800;BME280;68148;55.328;86.106;2024-03-29T11:20:46;98895.72;;;3.70;100.00
78800;BME280;68148;55.328;86.106;2024-03-29T11:23:14;98897.34;;;3.71;100.00
78800;BME280;68148;55.328;86.106;2024-03-29T11:25:41;98896.69;;;3.69;100.00
78800;BME280;68148;55.328;86.106;2024-03-29T11:28:08;98900.94;;;3.70;100.00
78800;BME280;68148;55.328;86.106;2024-03-29T11:30:45;98905.03;;;3.73;100.00
78800;BME280;68148;55.328;86.106;2024-03-29T11:33:28;98906.78;;;3.72;100.00
78800;BME280;68148;55.328;86.106;2024-03-29T11:35:55;98908.13;;;3.68;100.00
78800;BME280;68148;55.328;86.106;2024-03-29T11:38:20;98901.91;;;3.69;100.00
78800;BME280;68148;55.328;86.106;2024-03-29T11:41:02;98905.03;;;3.73;100.00
78800;BME280;68148;55.328;86.106;2024-03-29T11:43:33;98913.66;;;3.73;100.00
78800;BME280;68148;55.328;86.106;2024-03-29T11:46:00;98907.94;;;3.70;100.00
78800;BME280;68148;55.328;86.106;2024-03-29T11:48:27;98919.69;;;3.74;100.00
78800;BME280;68148;55.328;86.106;2024-03-29T11:50:54;98910.88;;;3.75;100.00
78800;BME280;68148;55.328;86.106;2024-03-29T11:53:23;98922.13;;;3.67;100.00
78800;BME280;68148;55.328;86.106;2024-03-29T11:55:49;98923.28;;;3.73;100.00
78800;BME280;68148;55.328;86.106;2024-03-29T11:58:15;98925.06;;;3.72;100.00
78800;BME280;68148;55.328;86.106;2024-03-29T12:00:41;98942.03;;;3.68;100.00
78800;BME280;68148;55.328;86.106;2024-03-29T12:03:07;98935.97;;;3.68;100.00
78800;BME280;68148;55.328;86.106;2024-03-29T12:05:33;98938.94;;;3.65;100.00
78800;BME280;68148;55.328;86.106;2024-03-29T12:07:59;98930.28;;;3.56;100.00
78800;BME280;68148;55.328;86.106;2024-03-29T12:10:30;98936.78;;;3.52;100.00
78800;BME280;68148;55.328;86.106;2024-03-29T12:12:57;98938.09;;;3.48;100.00
78800;BME280;68148;55.328;86.106;2024-03-29T12:15:27;98933.84;;;3.47;100.00
78800;BME280;68148;55.328;86.106;2024-03-29T12:18:00;98940.03;;;3.46;100.00
78800;BME280;68148;55.328;86.106;2024-03-29T12:20:29;98939.69;;;3.41;100.00
78800;BME280;68148;55.328;86.106;2024-03-29T12:22:55;98947.84;;;3.46;100.00
78800;BME280;68148;55.328;86.106;2024-03-29T12:25:21;98947.53;;;3.41;100.00
78800;BME280;68148;55.328;86.106;2024-03-29T12:27:47;98951.75;;;3.42;100.00
78800;BME280;68148;55.328;86.106;2024-03-29T12:30:14;98950.94;;;3.41;100.00
78800;BME280;68148;55.328;86.106;2024-03-29T12:32:41;98962.69;;;3.45;100.00
78800;BME280;68148;55.328;86.106;2024-03-29T12:35:10;98955.03;;;3.44;100.00
78800;BME280;68148;55.328;86.106;2024-03-29T12:37:37;98956.00;;;3.43;100.00
78800;BME280;68148;55.328;86.106;2024-03-29T12:40:05;98964.66;;;3.43;100.00
78800;BME280;68148;55.328;86.106;2024-03-29T12:42:30;98959.56;;;3.42;100.00
78800;BME280;68148;55.328;86.106;2024-03-29T12:44:56;98971.94;;;3.32;100.00
78800;BME280;68148;55.328;86.106;2024-03-29T12:47:22;98964.44;;;3.29;100.00
78800;BME280;68148;55.328;86.106;2024-03-29T12:50:00;98971.44;;;3.28;100.00
78800;BME280;68148;55.328;86.106;2024-03-29T12:52:26;98969.97;;;3.25;100.00
78800;BME280;68148;55.328;86.106;2024-03-29T12:54:52;98975.66;;;3.21;100.00
78800;BME280;68148;55.328;86.106;2024-03-29T12:57:18;98984.31;;;3.21;100.00